Time;durP1;ratioP1;P1;durP2;ratioP2;P2;SDS_P1;SDS_P2;PMS_P1;PMS_P2;Temp;Humidity;BMP_temperature;BMP_pressure;BME280_temperature;BME280_humidity;BME280_pressure;Samples;Min_cycle;Max_cycle;Signal;HPM_P1;HPM_P2
2022/07/09 00:03:20;;;;;;;16.65;6.05;;;;;;;13.59;100.00;102529.84;10217958;28;20031;-83
2022/07/09 00:08:20;;;;;;;15.70;5.90;;;;;;;13.91;100.00;102585.78;10248839;28;20411;-82
2022/07/09 00:13:21;;;;;;;11.82;5.95;;;;;;;14.23;100.00;102652.88;10251189;28;20382;-83
2022/07/09 00:18:21;;;;;;;11.18;5.95;;;;;;;14.80;100.00;102759.72;10250830;28;20094;-81
2022/07/09 00:23:22;;;;;;;12.70;6.30;;;;;;;13.77;100.00;102571.31;10248072;28;20467;-82
2022/07/09 00:28:23;;;;;;;17.20;6.90;;;;;;;14.58;100.00;102685.41;10249625;28;20555;-83
2022/07/09 00:33:23;;;;;;;16.27;6.60;;;;;;;13.73;100.00;102567.31;10288067;28;20034;-82
2022/07/09 00:38:24;;;;;;;10.75;6.25;;;;;;;14.44;100.00;102658.94;10242639;28;20422;-83
2022/07/09 00:49:49;;;;;;;13.35;6.50;;;;;;;14.12;100.00;102537.34;9787600;24;20030;-86
2022/07/09 00:54:49;;;;;;;18.90;9.18;;;;;;;14.39;100.00;102586.78;7990399;24;20137;-92
2022/07/09 00:59:50;;;;;;;17.52;7.43;;;;;;;14.65;100.00;102614.06;9906055;29;20050;-89
2022/07/09 01:04:51;;;;;;;13.02;8.60;;;;;;;14.15;100.00;102555.41;9869338;29;20042;-88
2022/07/09 01:15:34;;;;;;;17.05;8.52;;;;;;;15.30;100.00;102688.03;10857997;24;20098;31
2022/07/09 01:20:34;;;;;;;11.77;7.70;;;;;;;14.48;100.00;102549.31;10902487;24;20110;-87
2022/07/09 01:25:35;;;;;;;24.13;9.23;;;;;;;14.24;100.00;102534.59;9954163;29;20145;-89
2022/07/09 01:30:38;;;;;;;17.83;7.78;;;;;;;14.40;100.00;102550.50;9963932;29;20078;-91
2022/07/09 01:35:41;;;;;;;17.48;8.63;;;;;;;15.04;100.00;102617.22;9884426;29;20089;-91
2022/07/09 01:40:42;;;;;;;18.65;10.50;;;;;;;13.82;100.00;102449.63;9913352;29;20030;-90
2022/07/09 01:45:43;;;;;;;13.38;10.20;;;;;;;15.07;100.00;102625.06;9925954;29;20131;-90
2022/07/09 01:50:45;;;;;;;23.10;10.55;;;;;;;14.42;100.00;102508.72;9868032;29;20102;-90
2022/07/09 01:55:48;;;;;;;19.98;10.98;;;;;;;14.39;100.00;102507.28;9905994;29;20043;-90
2022/07/09 02:00:49;;;;;;;25.45;11.52;;;;;;;14.58;100.00;102534.91;9899610;29;20039;-91
2022/07/09 02:05:49;;;;;;;27.27;12.32;;;;;;;14.17;100.00;102468.22;9866701;29;20476;-90
2022/07/09 02:10:50;;;;;;;25.17;13.38;;;;;;;14.31;100.00;102478.00;9885172;29;20031;-90
2022/07/09 02:15:51;;;;;;;24.00;12.13;;;;;;;14.12;100.00;102424.63;9867200;29;20062;-90
2022/07/09 02:20:52;;;;;;;25.48;13.95;;;;;;;14.08;100.00;102419.81;9870672;29;20046;-90
2022/07/09 02:25:54;;;;;;;25.88;13.95;;;;;;;14.17;100.00;102440.53;9910007;29;20034;-90
2022/07/09 02:30:57;;;;;;;24.23;13.98;;;;;;;15.12;100.00;102585.50;9924829;29;20030;-90
2022/07/09 02:35:58;;;;;;;23.05;13.10;;;;;;;15.12;100.00;102572.47;9928883;29;20038;-90
2022/07/09 02:41:00;;;;;;;25.45;13.73;;;;;;;14.09;100.00;102427.88;9914546;29;20026;-90
2022/07/09 02:46:03;;;;;;;23.77;12.75;;;;;;;14.40;100.00;102458.22;9907010;29;20095;-91
2022/07/09 02:51:07;;;;;;;26.92;13.95;;;;;;;14.09;100.00;102415.97;9894295;29;20121;-90
2022/07/09 02:56:08;;;;;;;21.80;11.85;;;;;;;14.39;100.00;102451.03;9909187;29;20053;-91
2022/07/09 03:01:08;;;;;;;28.92;13.15;;;;;;;14.69;100.00;102547.91;9882095;29;20375;-91
2022/07/09 03:06:09;;;;;;;25.05;13.73;;;;;;;14.74;100.00;102512.00;9885336;29;20579;-90
2022/07/09 03:11:10;;;;;;;25.48;13.65;;;;;;;14.68;100.00;102508.25;9869623;29;20106;-89
2022/07/09 03:16:11;;;;;;;25.30;12.57;;;;;;;13.89;100.00;102381.16;9860949;29;20076;-90
2022/07/09 03:21:20;;;;;;;28.30;14.10;;;;;;;14.21;100.00;102458.34;9803784;29;20428;-91
2022/07/09 03:26:20;;;;;;;26.35;13.95;;;;;;;14.70;100.00;102521.88;9960056;29;20037;-90
2022/07/09 03:31:21;;;;;;;23.83;12.48;;;;;;;14.10;100.00;102428.75;9940908;29;20050;-90
2022/07/09 03:36:22;;;;;;;26.52;13.23;;;;;;;13.83;100.00;102384.91;9965458;29;20378;-90
2022/07/09 03:41:23;;;;;;;23.30;13.02;;;;;;;14.81;100.00;102545.13;9959866;29;20175;-90
2022/07/09 03:46:24;;;;;;;27.90;13.38;;;;;;;14.44;100.00;102495.47;9929743;29;20049;-89
2022/07/09 03:51:24;;;;;;;22.10;13.77;;;;;;;14.15;100.00;102439.91;9905659;29;20034;-89
2022/07/09 03:56:25;;;;;;;30.55;14.55;;;;;;;14.18;100.00;102439.47;9890220;29;20293;-90
2022/07/09 04:01:26;;;;;;;31.60;15.25;;;;;;;14.52;100.00;102487.63;9892403;29;20050;-91
2022/07/09 04:06:27;;;;;;;29.65;12.70;;;;;;;14.85;100.00;102560.22;9871078;29;20086;-90
2022/07/09 04:11:27;;;;;;;29.08;13.27;;;;;;;14.28;100.00;102486.78;9915125;29;20031;-91
2022/07/09 04:16:28;;;;;;;27.83;13.55;;;;;;;14.87;100.00;102567.19;9908680;29;20045;-91
2022/07/09 04:21:30;;;;;;;23.75;12.18;;;;;;;13.81;100.00;102353.84;9928668;29;20042;-91
2022/07/09 04:26:31;;;;;;;22.73;12.75;;;;;;;14.77;100.00;102518.97;9926686;29;20061;-90
2022/07/09 04:31:32;;;;;;;20.45;11.95;;;;;;;14.81;100.00;102489.69;9973346;29;20068;-90
2022/07/09 04:36:32;;;;;;;23.92;11.25;;;;;;;14.72;100.00;102489.22;9988648;29;20054;-90
2022/07/09 04:41:34;;;;;;;21.50;10.90;;;;;;;15.27;100.00;102552.53;9957333;29;20390;-89
2022/07/09 04:46:34;;;;;;;23.42;11.25;;;;;;;14.73;100.00;102450.16;9988729;29;20054;-90
2022/07/09 04:51:35;;;;;;;20.90;10.75;;;;;;;14.78;100.00;102463.28;9987234;29;20034;-90
2022/07/09 04:57:20;;;;;;;22.25;10.27;;;;;;;15.35;100.00;102512.47;9905263;29;20150;-91
2022/07/09 05:03:33;;;;;;;;;;;;;;;;;;;;;
2022/07/09 05:10:03;;;;;;;17.77;9.93;;;;;;;15.97;100.00;102597.81;9443638;30;20591;-89
2022/07/09 05:15:22;;;;;;;15.48;8.98;;;;;;;16.05;100.00;102591.03;10487853;27;20402;-66
2022/07/09 05:20:22;;;;;;;16.38;9.68;;;;;;;16.28;100.00;102587.28;10483949;28;20079;-67
2022/07/09 05:25:23;;;;;;;14.82;7.93;;;;;;;16.47;100.00;102582.31;10486311;28;20056;-67
2022/07/09 05:30:23;;;;;;;15.80;7.65;;;;;;;16.52;100.00;102571.28;10467287;28;20040;-64
2022/07/09 05:35:24;;;;;;;15.88;8.23;;;;;;;16.52;100.00;102574.06;10406426;28;20041;-64
2022/07/09 05:40:24;;;;;;;17.58;7.63;;;;;;;16.62;100.00;102565.03;10442934;28;20025;-67
2022/07/09 05:45:25;;;;;;;13.27;6.90;;;;;;;16.75;100.00;102576.66;10445469;28;20049;-67
2022/07/09 05:50:25;;;;;;;15.00;6.95;;;;;;;16.75;100.00;102561.91;10443631;28;20049;-67
2022/07/09 05:55:26;;;;;;;15.02;6.63;;;;;;;16.83;100.00;102569.84;10440697;28;20049;-67
2022/07/09 06:00:26;;;;;;;17.08;6.38;;;;;;;17.01;100.00;102559.53;10468073;28;20032;-64
2022/07/09 06:05:27;;;;;;;12.50;6.40;;;;;;;17.03;100.00;102555.41;10481893;28;20047;-64
2022/07/09 06:10:27;;;;;;;8.77;5.35;;;;;;;17.17;100.00;102566.97;10481726;28;20036;-67
2022/07/09 06:15:28;;;;;;;10.43;5.60;;;;;;;17.23;100.00;102565.13;10484918;28;20048;-65
2022/07/09 06:20:28;;;;;;;11.05;5.20;;;;;;;17.21;100.00;102567.31;10460317;28;20033;-66
2022/07/09 06:25:29;;;;;;;15.50;6.05;;;;;;;17.27;100.00;102557.94;10420867;28;20046;-65
2022/07/09 06:30:30;;;;;;;12.40;5.45;;;;;;;17.43;100.00;102561.75;10419889;28;20504;-65
2022/07/09 06:35:31;;;;;;;13.55;4.28;;;;;;;17.53;100.00;102550.75;10452535;28;20128;-66
2022/07/09 06:40:32;;;;;;;14.63;5.28;;;;;;;17.59;100.00;102551.63;10436756;28;20047;-65
2022/07/09 06:45:33;;;;;;;8.70;4.30;;;;;;;17.68;100.00;102556.47;10455370;28;20071;-65
2022/07/09 06:50:33;;;;;;;8.07;4.32;;;;;;;17.65;100.00;102567.28;10453958;28;20037;-64
2022/07/09 06:55:33;;;;;;;7.28;4.55;;;;;;;17.66;100.00;102585.72;10436084;28;20094;-67
2022/07/09 07:00:34;;;;;;;7.82;3.35;;;;;;;17.72;100.00;102573.53;10437018;28;20037;-66
2022/07/09 07:05:34;;;;;;;6.00;3.47;;;;;;;17.73;100.00;102550.13;10409557;28;20130;-67
2022/07/09 07:10:35;;;;;;;11.07;3.38;;;;;;;17.79;100.00;102556.59;10409843;28;20048;-66
2022/07/09 07:15:35;;;;;;;6.88;3.33;;;;;;;18.00;100.00;102557.69;10410713;28;20052;-66
2022/07/09 07:20:36;;;;;;;5.28;2.63;;;;;;;18.17;100.00;102552.84;10411255;28;20044;-65
2022/07/09 07:25:36;;;;;;;6.28;2.65;;;;;;;18.30;100.00;102557.97;10410075;28;20504;-66
2022/07/09 07:30:37;;;;;;;6.57;2.63;;;;;;;18.34;100.00;102547.97;10400776;28;20182;-64
2022/07/09 07:35:37;;;;;;;9.10;2.45;;;;;;;18.63;100.00;102553.19;10407351;28;20117;-66
2022/07/09 07:40:38;;;;;;;4.93;1.95;;;;;;;18.75;100.00;102547.44;10408226;28;20095;-66
2022/07/09 07:45:38;;;;;;;7.22;2.08;;;;;;;18.90;100.00;102549.50;10409087;28;20065;-66
2022/07/09 07:50:39;;;;;;;5.07;2.30;;;;;;;19.00;100.00;102543.97;10404011;28;20033;-66
2022/07/09 07:55:41;;;;;;;7.15;1.98;;;;;;;19.17;100.00;102545.75;10389100;28;20037;-65
2022/07/09 08:00:41;;;;;;;7.75;2.75;;;;;;;19.43;100.00;102541.94;10383884;28;20643;-66
2022/07/09 08:05:42;;;;;;;7.22;1.60;;;;;;;19.80;100.00;102546.53;10403610;28;20232;-66
2022/07/09 08:10:42;;;;;;;4.68;1.58;;;;;;;19.60;100.00;102535.28;10409300;28;20071;-66
2022/07/09 08:15:43;;;;;;;4.00;1.42;;;;;;;19.52;100.00;102545.88;10447266;28;20055;-65
2022/07/09 08:20:43;;;;;;;6.05;1.75;;;;;;;19.30;100.00;102548.03;10450418;28;20037;-66
2022/07/09 08:25:44;;;;;;;8.25;1.83;;;;;;;19.14;100.00;102541.50;10446953;28;20393;-66
2022/07/09 08:30:44;;;;;;;12.20;2.65;;;;;;;19.22;100.00;102545.75;10435468;28;20428;-66
2022/07/09 08:35:45;;;;;;;3.45;1.42;;;;;;;19.53;100.00;102530.81;10406311;28;20053;-66
2022/07/09 08:40:45;;;;;;;4.90;1.35;;;;;;;20.27;100.00;102537.06;10409048;28;20037;-66
2022/07/09 08:45:46;;;;;;;4.43;1.45;;;;;;;20.01;100.00;102541.84;10409617;28;20029;-66
2022/07/09 08:50:48;;;;;;;3.72;1.50;;;;;;;20.26;100.00;102538.22;10405911;28;20096;-67
2022/07/09 08:55:48;;;;;;;3.60;1.30;;;;;;;20.27;100.00;102548.25;10427112;28;20548;-66
2022/07/09 09:00:50;;;;;;;5.88;1.10;;;;;;;19.96;100.00;102542.63;10441289;28;20037;-66
2022/07/09 09:06:07;;;;;;;8.40;1.38;;;;;;;19.68;100.00;102546.75;10430578;28;20047;-67
2022/07/09 09:11:12;;;;;;;8.38;1.20;;;;;;;19.60;100.00;102540.88;10440479;28;20400;-68
2022/07/09 09:16:15;;;;;;;13.75;2.65;;;;;;;20.13;100.00;102541.53;10460243;28;20500;-66
2022/07/09 09:21:16;;;;;;;6.75;1.40;;;;;;;20.73;100.00;102536.22;10412913;28;20042;-67
2022/07/09 09:26:18;;;;;;;3.20;1.30;;;;;;;20.79;100.00;102514.66;10441555;28;20040;-67
2022/07/09 09:31:22;;;;;;;4.65;1.17;;;;;;;20.80;100.00;102531.19;10404164;28;20072;-67
2022/07/09 09:36:31;;;;;;;4.80;1.35;;;;;;;20.65;100.00;102534.84;10405051;28;20037;-67
2022/07/09 09:41:31;;;;;;;6.13;1.42;;;;;;;20.76;100.00;102524.47;10401383;28;20034;-67
2022/07/09 09:46:32;;;;;;;3.10;1.00;;;;;;;20.66;100.00;102541.28;10403512;28;20029;-67
2022/07/09 09:52:03;;;;;;;4.38;1.38;;;;;;;20.95;100.00;102528.31;10380098;28;20038;-68
2022/07/09 09:57:09;;;;;;;4.72;0.98;;;;;;;20.99;100.00;102533.38;10403976;28;20034;-67
2022/07/09 10:02:10;;;;;;;4.80;1.40;;;;;;;20.93;100.00;102535.34;10413640;28;20048;-67
2022/07/09 10:07:11;;;;;;;10.90;2.03;;;;;;;20.67;100.00;102549.41;10412877;28;20037;-68
2022/07/09 10:12:12;;;;;;;4.70;1.13;;;;;;;21.50;100.00;102534.03;10410301;28;20123;-66
2022/07/09 10:17:14;;;;;;;7.18;1.63;;;;;;;21.25;100.00;102542.50;10446135;28;20057;-68
2022/07/09 10:22:14;;;;;;;3.35;0.88;;;;;;;21.96;99.80;102525.31;10412635;28;20436;-66
2022/07/09 10:27:15;;;;;;;10.20;2.55;;;;;;;22.41;99.30;102530.88;10412785;28;20492;-68
2022/07/09 10:32:27;;;;;;;6.93;1.70;;;;;;;22.80;100.00;102518.69;10414170;28;20036;-67
2022/07/09 10:37:43;;;;;;;6.35;1.48;;;;;;;23.16;96.83;102518.28;10414390;28;20045;-68
2022/07/09 10:42:45;;;;;;;6.17;1.30;;;;;;;22.90;98.79;102527.00;10419127;28;20052;-67
2022/07/09 10:47:47;;;;;;;6.53;1.80;;;;;;;22.57;100.00;102528.75;10410279;28;20044;-69
2022/07/09 10:52:48;;;;;;;5.28;1.50;;;;;;;21.82;100.00;102563.53;10410476;28;20041;-66
2022/07/09 10:57:49;;;;;;;11.43;1.73;;;;;;;20.40;100.00;102582.38;10412250;28;20041;-66
2022/07/09 11:02:57;;;;;;;6.40;1.77;;;;;;;19.75;100.00;102586.47;10411083;28;20039;-65
2022/07/09 11:08:05;;;;;;;8.95;2.00;;;;;;;19.71;100.00;102587.31;10425850;28;20452;-66
2022/07/09 11:13:06;;;;;;;6.20;1.80;;;;;;;20.03;100.00;102594.66;10408897;28;20041;-66
2022/07/09 11:18:11;;;;;;;9.98;1.55;;;;;;;20.40;100.00;102593.56;10437729;28;20033;-65
2022/07/09 11:23:14;;;;;;;9.80;1.85;;;;;;;20.16;100.00;102594.97;10436819;28;20041;-65
2022/07/09 11:28:18;;;;;;;13.27;2.55;;;;;;;20.78;100.00;102585.78;10447625;28;20041;-65
2022/07/09 11:33:19;;;;;;;9.65;1.60;;;;;;;20.93;100.00;102594.13;10423622;28;20056;-64
2022/07/09 11:38:19;;;;;;;8.85;2.45;;;;;;;20.65;100.00;102595.56;10424133;28;20037;-66
2022/07/09 11:43:20;;;;;;;10.60;1.83;;;;;;;20.63;100.00;102603.38;10409765;28;20312;-64
2022/07/09 11:48:20;;;;;;;7.50;1.95;;;;;;;20.91;100.00;102594.41;10423622;28;20040;-67
2022/07/09 11:53:21;;;;;;;11.25;1.45;;;;;;;21.01;100.00;102598.31;10409270;28;20041;-66
2022/07/09 11:58:22;;;;;;;14.75;2.17;;;;;;;20.65;100.00;102602.03;10410656;28;20510;-65
2022/07/09 12:03:24;;;;;;;8.57;1.35;;;;;;;20.40;100.00;102599.16;10408838;28;20037;-65
2022/07/09 12:08:29;;;;;;;8.95;1.52;;;;;;;20.85;99.04;102583.50;10423583;28;20045;-66
2022/07/09 12:13:30;;;;;;;8.50;0.90;;;;;;;21.52;96.26;102587.81;10405445;28;20097;-65
2022/07/09 12:18:30;;;;;;;5.63;1.00;;;;;;;22.57;91.11;102584.88;10408079;28;20312;-65
2022/07/09 12:23:31;;;;;;;6.57;1.00;;;;;;;22.68;84.19;102575.25;10409133;28;20037;-65
2022/07/09 12:28:31;;;;;;;7.38;1.10;;;;;;;22.57;83.93;102579.25;10409338;28;20060;-66
2022/07/09 12:33:32;;;;;;;5.03;1.20;;;;;;;23.01;80.20;102558.66;10406792;28;20041;-66
2022/07/09 12:38:32;;;;;;;7.28;1.00;;;;;;;22.97;80.31;102561.19;10416949;28;20029;-66
2022/07/09 12:43:32;;;;;;;5.13;1.20;;;;;;;22.81;81.94;102567.25;10448274;28;20040;-66
2022/07/09 12:48:33;;;;;;;9.05;1.50;;;;;;;21.79;82.32;102564.13;10448323;28;20029;-66
2022/07/09 12:53:33;;;;;;;4.82;1.10;;;;;;;21.38;86.63;102578.31;10449810;28;20029;-63
2022/07/09 12:58:34;;;;;;;5.82;1.30;;;;;;;22.27;81.36;102557.94;10438118;28;20049;-65
2022/07/09 13:03:34;;;;;;;7.68;0.90;;;;;;;23.20;77.46;102555.91;10406954;28;20048;-65
2022/07/09 13:08:35;;;;;;;7.07;1.02;;;;;;;22.84;77.39;102561.03;10407165;28;20042;-64
2022/07/09 13:13:35;;;;;;;2.95;0.80;;;;;;;22.84;78.30;102559.09;10406842;28;20072;-66
2022/07/09 13:18:36;;;;;;;3.20;0.98;;;;;;;22.08;79.25;102572.63;10405591;28;20064;-66
2022/07/09 13:23:36;;;;;;;5.53;0.65;;;;;;;21.96;79.18;102569.34;10407522;28;20037;-65
2022/07/09 13:28:36;;;;;;;4.88;0.90;;;;;;;22.36;78.50;102568.22;10405615;28;20038;-67
2022/07/09 13:33:37;;;;;;;4.07;0.68;;;;;;;23.56;73.35;102533.78;10407089;28;20046;-66
2022/07/09 13:38:37;;;;;;;3.08;0.65;;;;;;;24.59;71.04;102549.06;10414017;28;20037;-65
2022/07/09 13:43:38;;;;;;;5.10;1.05;;;;;;;23.45;68.91;102529.44;10413901;28;20049;-65
2022/07/09 13:48:38;;;;;;;3.88;1.23;;;;;;;22.69;71.47;102560.06;10413766;28;20041;-66
2022/07/09 13:53:39;;;;;;;2.15;0.82;;;;;;;22.35;69.85;102548.88;10415225;28;20420;-66
2022/07/09 13:58:39;;;;;;;5.45;0.65;;;;;;;21.93;73.80;102556.75;10414893;28;20026;-66
2022/07/09 14:03:41;;;;;;;2.13;0.80;;;;;;;21.68;74.11;102557.72;10412608;28;20038;-66
2022/07/09 14:08:41;;;;;;;2.65;0.80;;;;;;;20.90;74.39;102580.72;10413126;28;20042;-65
2022/07/09 14:13:43;;;;;;;4.05;1.48;;;;;;;20.55;76.09;102574.00;10413017;28;20033;-66
2022/07/09 14:18:44;;;;;;;4.10;0.80;;;;;;;20.78;79.05;102589.41;10412846;28;20045;-66
2022/07/09 14:23:47;;;;;;;4.53;0.95;;;;;;;20.15;78.24;102587.72;10414572;28;20172;-67
2022/07/09 14:28:48;;;;;;;8.10;0.88;;;;;;;19.70;81.59;102588.38;10413560;28;20029;-65
2022/07/09 14:33:48;;;;;;;5.20;0.90;;;;;;;19.52;82.31;102590.56;10452703;28;20037;-67
2022/07/09 14:38:49;;;;;;;4.40;0.90;;;;;;;19.19;83.86;102607.72;10452930;28;20059;-65
2022/07/09 14:43:49;;;;;;;2.13;0.70;;;;;;;18.84;84.74;102558.94;10452934;28;20051;-66
2022/07/09 14:48:50;;;;;;;5.45;0.77;;;;;;;19.71;83.78;102588.16;10453523;28;20036;-67
2022/07/09 14:53:50;;;;;;;5.25;0.90;;;;;;;19.64;83.09;102586.72;10455222;28;20048;-67
2022/07/09 14:58:51;;;;;;;6.50;0.93;;;;;;;19.39;84.04;102590.22;10452017;28;20060;-66
2022/07/09 15:03:51;;;;;;;5.70;0.93;;;;;;;19.36;85.00;102586.84;10452467;28;20040;-66
2022/07/09 15:08:51;;;;;;;5.38;1.45;;;;;;;19.36;80.14;102586.84;10452552;28;20041;-66
2022/07/09 15:13:52;;;;;;;4.88;0.80;;;;;;;19.05;79.83;102580.28;10452464;28;20055;-65
2022/07/09 15:18:52;;;;;;;3.83;0.75;;;;;;;19.23;81.12;102594.91;10453080;28;20037;-65
2022/07/09 15:23:53;;;;;;;5.82;1.02;;;;;;;19.60;81.44;102597.59;10453917;28;20276;-65
2022/07/09 15:28:54;;;;;;;3.92;0.90;;;;;;;19.50;81.94;102587.22;10450698;28;20067;-66
2022/07/09 15:33:54;;;;;;;2.65;1.05;;;;;;;19.55;82.49;102595.63;10450669;28;20063;-66
2022/07/09 15:38:54;;;;;;;3.25;1.20;;;;;;;19.19;84.52;102607.72;10451355;28;20578;-66
2022/07/09 15:43:55;;;;;;;4.47;1.27;;;;;;;19.07;87.39;102614.34;10451462;28;20040;-66
2022/07/09 15:48:55;;;;;;;7.40;1.33;;;;;;;19.09;88.87;102614.91;10438723;28;20075;-66
2022/07/09 15:53:56;;;;;;;8.50;1.73;;;;;;;18.87;87.64;102600.25;10410358;28;20037;-67
2022/07/09 15:58:56;;;;;;;5.45;1.10;;;;;;;18.85;88.92;102599.69;10408731;28;20083;-66
2022/07/09 16:03:57;;;;;;;8.25;1.00;;;;;;;19.54;83.92;102582.75;10442643;28;20032;-66
2022/07/09 16:08:57;;;;;;;6.45;1.20;;;;;;;19.12;86.42;102603.22;10450299;28;20152;-67
2022/07/09 16:13:58;;;;;;;3.15;0.80;;;;;;;18.78;84.29;102576.75;10449710;28;20083;-66
2022/07/09 16:18:58;;;;;;;8.30;0.90;;;;;;;18.96;82.73;102576.34;10448204;28;20033;-66
2022/07/09 16:23:59;;;;;;;3.97;0.73;;;;;;;18.73;82.73;102578.38;10450903;28;20037;-66
2022/07/09 16:28:59;;;;;;;7.88;1.35;;;;;;;18.29;84.84;102580.53;10445890;28;20365;-67
2022/07/09 16:34:00;;;;;;;8.60;1.48;;;;;;;18.35;86.92;102582.25;10406458;28;20041;-66
2022/07/09 16:39:00;;;;;;;4.15;0.80;;;;;;;18.16;88.62;102579.03;10446588;28;20040;-66
2022/07/09 16:44:01;;;;;;;8.55;1.10;;;;;;;18.11;91.48;102599.31;10446414;28;20036;-66
2022/07/09 16:49:02;;;;;;;10.23;1.95;;;;;;;18.24;92.30;102598.06;10446998;28;20075;-66
2022/07/09 16:54:02;;;;;;;8.68;1.45;;;;;;;18.30;90.80;102594.19;10448806;28;20041;-66
2022/07/09 16:59:03;;;;;;;3.35;0.90;;;;;;;18.36;87.77;102595.09;10415262;28;20126;-67
2022/07/09 17:04:04;;;;;;;8.63;1.00;;;;;;;18.16;89.31;102595.75;10425851;28;20082;-66
2022/07/09 17:09:04;;;;;;;7.43;1.92;;;;;;;18.03;87.88;102576.66;10410826;28;20071;-62
2022/07/09 17:14:05;;;;;;;7.05;1.20;;;;;;;18.23;90.63;102590.81;10428303;28;22197;-65
2022/07/09 17:19:05;;;;;;;5.57;1.02;;;;;;;18.21;88.43;102581.88;10412210;28;20040;-66
2022/07/09 17:24:06;;;;;;;3.72;1.17;;;;;;;17.86;86.43;102534.97;10407078;28;20056;-66
2022/07/09 17:29:06;;;;;;;9.88;1.13;;;;;;;17.81;87.12;102571.94;10407913;28;20075;-66
2022/07/09 17:34:08;;;;;;;5.00;1.55;;;;;;;17.50;88.17;102566.00;10403310;28;20061;-65
2022/07/09 17:39:11;;;;;;;2.65;0.90;;;;;;;17.41;87.96;102583.47;10404093;28;20048;-65
2022/07/09 17:44:12;;;;;;;5.35;1.40;;;;;;;17.21;88.71;102576.50;10404963;28;20068;-65
2022/07/09 17:49:12;;;;;;;6.20;1.17;;;;;;;17.05;91.26;102589.38;10411629;28;20061;-65
2022/07/09 17:54:13;;;;;;;4.53;0.82;;;;;;;16.88;93.19;102591.34;10379121;28;20424;-65
2022/07/09 17:59:13;;;;;;;2.65;0.68;;;;;;;16.73;94.98;102587.19;10364023;28;20064;-63
2022/07/09 18:04:16;;;;;;;5.00;1.15;;;;;;;16.60;96.01;102595.91;10390251;28;20041;-64
2022/07/09 18:09:16;;;;;;;4.70;0.95;;;;;;;16.57;97.98;102585.25;10431964;28;20396;-65
2022/07/09 18:14:17;;;;;;;6.45;1.13;;;;;;;16.57;99.61;102579.69;10419270;28;20038;-65
2022/07/09 18:19:17;;;;;;;4.25;0.88;;;;;;;16.31;100.00;102586.78;10436460;28;20048;-65
2022/07/09 18:24:18;;;;;;;4.47;1.10;;;;;;;16.25;100.00;102593.34;10422734;28;20574;-65
2022/07/09 18:29:18;;;;;;;8.48;1.20;;;;;;;16.25;100.00;102577.50;10415419;28;20050;-65
2022/07/09 18:34:19;;;;;;;9.27;1.20;;;;;;;16.30;100.00;102574.81;10426208;28;20036;-66
2022/07/09 18:39:19;;;;;;;9.27;1.20;;;;;;;16.24;100.00;102575.81;10412367;28;20498;-65
2022/07/09 18:44:19;;;;;;;6.40;1.00;;;;;;;16.10;100.00;102586.44;10419723;28;20500;-65
2022/07/09 18:49:20;;;;;;;11.68;1.92;;;;;;;16.05;100.00;102596.59;10411389;28;20105;-65
2022/07/09 18:54:20;;;;;;;6.00;1.30;;;;;;;15.97;100.00;102605.31;10411291;28;20433;-65
2022/07/09 18:59:21;;;;;;;8.13;1.20;;;;;;;15.87;100.00;102615.13;10411076;28;20460;-65
2022/07/09 19:04:21;;;;;;;5.57;0.85;;;;;;;15.28;100.00;102622.75;10424823;28;20493;-66
2022/07/09 19:09:22;;;;;;;8.50;1.58;;;;;;;14.88;100.00;102626.25;10423867;28;20033;-65
2022/07/09 19:14:22;;;;;;;6.78;1.73;;;;;;;14.63;100.00;102620.94;10409919;28;20045;-64
2022/07/09 19:19:23;;;;;;;7.10;2.08;;;;;;;14.47;100.00;102616.91;10428292;28;20052;-65
2022/07/09 19:24:23;;;;;;;6.97;1.33;;;;;;;14.43;100.00;102621.25;10411649;28;20034;-65
2022/07/09 19:29:24;;;;;;;9.95;1.45;;;;;;;14.37;100.00;102627.75;10408729;28;20528;-64
2022/07/09 19:34:24;;;;;;;8.80;1.48;;;;;;;14.42;100.00;102627.88;10418518;28;20066;-65
2022/07/09 19:39:25;;;;;;;7.30;1.58;;;;;;;14.50;100.00;102622.81;10449693;28;20501;-65
2022/07/09 19:44:25;;;;;;;10.68;2.25;;;;;;;14.49;100.00;102618.38;10450469;28;20052;-65
2022/07/09 19:49:26;;;;;;;5.72;1.10;;;;;;;14.45;100.00;102619.06;10452548;28;20041;-64
2022/07/09 19:54:26;;;;;;;5.80;0.90;;;;;;;14.45;100.00;102619.06;10450712;28;20037;-65
2022/07/09 19:59:27;;;;;;;11.75;1.90;;;;;;;14.41;100.00;102635.34;10417798;28;20041;-64
2022/07/09 20:04:27;;;;;;;6.63;1.20;;;;;;;14.41;100.00;102634.50;10440713;28;20043;-64
2022/07/09 20:09:28;;;;;;;8.35;1.00;;;;;;;14.38;100.00;102612.78;10417728;28;20033;-64
2022/07/09 20:14:29;;;;;;;7.00;1.10;;;;;;;14.39;100.00;102615.34;10424239;28;20051;-64
2022/07/09 20:19:30;;;;;;;8.57;1.50;;;;;;;14.40;100.00;102617.00;10420634;28;20040;-65
2022/07/09 20:24:30;;;;;;;7.13;1.30;;;;;;;14.39;100.00;102636.66;10404507;28;20045;-65
2022/07/09 20:29:31;;;;;;;8.00;1.30;;;;;;;14.37;100.00;102631.34;10379491;28;20030;-65
2022/07/09 20:34:31;;;;;;;9.38;1.23;;;;;;;14.36;100.00;102621.34;10360247;28;20046;-64
2022/07/09 20:39:32;;;;;;;8.25;1.60;;;;;;;14.38;100.00;102613.63;10362109;28;20034;-65
2022/07/09 20:44:33;;;;;;;5.90;1.10;;;;;;;14.42;100.00;102614.00;10365404;28;20073;-64
2022/07/09 20:49:33;;;;;;;9.80;1.08;;;;;;;14.35;100.00;102591.97;10363192;28;20101;-64
2022/07/09 20:54:34;;;;;;;7.22;1.15;;;;;;;14.23;100.00;102597.47;10364351;28;20037;-64
2022/07/09 20:59:34;;;;;;;11.75;1.27;;;;;;;14.08;100.00;102591.53;10363750;28;20049;-63
2022/07/09 21:04:35;;;;;;;7.88;0.90;;;;;;;13.93;100.00;102603.88;10371620;28;20045;-64
2022/07/09 21:09:35;;;;;;;6.80;0.90;;;;;;;13.86;100.00;102597.56;10402911;28;20497;-64
2022/07/09 21:14:36;;;;;;;4.90;1.20;;;;;;;13.76;100.00;102594.53;10404036;28;20079;-64
2022/07/09 21:19:36;;;;;;;4.75;1.00;;;;;;;13.77;100.00;102587.91;10366228;28;20050;-63
2022/07/09 21:24:37;;;;;;;6.32;0.90;;;;;;;13.80;100.00;102586.59;10365073;28;20042;-65
2022/07/09 21:29:37;;;;;;;5.38;1.67;;;;;;;13.84;100.00;102580.34;10363572;28;20037;-64
2022/07/09 21:34:38;;;;;;;5.90;1.20;;;;;;;13.84;100.00;102571.22;10363046;28;21427;-64
2022/07/09 21:39:38;;;;;;;4.75;0.80;;;;;;;13.83;100.00;102578.69;10363524;28;20054;-64
2022/07/09 21:44:39;;;;;;;8.23;1.15;;;;;;;13.89;100.00;102577.75;10387389;28;20119;-64
2022/07/09 21:49:39;;;;;;;7.63;1.08;;;;;;;13.89;100.00;102577.75;10409414;28;20056;-64
2022/07/09 21:54:40;;;;;;;10.50;1.40;;;;;;;13.98;100.00;102574.63;10404158;28;20041;-63
2022/07/09 21:59:41;;;;;;;3.85;0.90;;;;;;;14.03;100.00;102566.44;10410446;28;20103;-64
2022/07/09 22:04:41;;;;;;;8.40;1.50;;;;;;;14.07;100.00;102559.34;10420829;28;20067;-64
2022/07/09 22:09:44;;;;;;;8.48;1.27;;;;;;;13.90;100.00;102526.81;10431177;28;20030;-62
2022/07/09 22:14:44;;;;;;;7.25;1.10;;;;;;;14.03;100.00;102563.69;10412749;28;20100;-64
2022/07/09 22:19:44;;;;;;;4.75;0.88;;;;;;;14.00;100.00;102565.00;10427475;28;20038;-64
2022/07/09 22:24:45;;;;;;;11.45;1.65;;;;;;;14.06;100.00;102566.00;10426540;28;20041;-64
2022/07/09 22:29:45;;;;;;;4.82;1.00;;;;;;;14.07;100.00;102564.91;10409372;28;20064;-64
2022/07/09 22:34:46;;;;;;;8.32;1.33;;;;;;;14.05;100.00;102575.38;10407949;28;20037;-64
2022/07/09 22:39:46;;;;;;;8.60;1.42;;;;;;;14.00;100.00;102578.03;10409202;28;20128;-64
2022/07/09 22:44:47;;;;;;;5.90;1.00;;;;;;;14.00;100.00;102567.78;10412114;28;20048;-64
2022/07/09 22:49:47;;;;;;;14.68;2.10;;;;;;;13.92;100.00;102548.72;10411013;28;20350;-64
2022/07/09 22:54:48;;;;;;;3.83;0.93;;;;;;;13.92;100.00;102544.03;10409254;28;20037;-64
2022/07/09 22:59:48;;;;;;;9.55;1.52;;;;;;;13.86;100.00;102549.66;10438561;28;20389;-64
2022/07/09 23:04:49;;;;;;;8.30;1.65;;;;;;;13.86;100.00;102553.28;10448619;28;20033;-64